Time;durP1;ratioP1;P1;durP2;ratioP2;P2;SDS_P1;SDS_P2;PMS_P1;PMS_P2;Temp;Humidity;BMP_temperature;BMP_pressure;BME280_temperature;BME280_humidity;BME280_pressure;Samples;Min_cycle;Max_cycle;Signal;HPM_P1;HPM_P2
2023/07/16 00:00:11;;;;;;;5.25;1.80;;;19.10;99.90;;;;;;5053951;28;20017;-52
2023/07/16 00:02:38;;;;;;;4.50;1.60;;;19.10;99.90;;;;;;5052991;28;20085;-52
2023/07/16 00:05:04;;;;;;;4.32;1.80;;;19.10;99.90;;;;;;5053963;28;20381;-50
2023/07/16 00:07:30;;;;;;;3.45;1.88;;;19.10;99.90;;;;;;5054012;28;20029;-50
2023/07/16 00:09:55;;;;;;;6.93;3.05;;;19.00;99.90;;;;;;5053566;28;20044;-48
2023/07/16 00:12:21;;;;;;;6.20;3.03;;;19.00;99.90;;;;;;5053351;28;20031;-50
2023/07/16 00:14:48;;;;;;;3.17;1.90;;;19.00;99.90;;;;;;5053345;28;20504;-49
2023/07/16 00:17:14;;;;;;;6.18;2.78;;;19.00;99.90;;;;;;5053620;28;20032;-51
2023/07/16 00:19:39;;;;;;;3.63;2.10;;;18.90;99.90;;;;;;5053117;28;20036;-48
2023/07/16 00:22:05;;;;;;;3.22;1.70;;;19.00;99.90;;;;;;5053437;28;20158;-50
2023/07/16 00:24:31;;;;;;;4.63;2.00;;;19.00;99.90;;;;;;5053287;28;20086;-49
2023/07/16 00:26:57;;;;;;;4.00;1.98;;;19.00;99.90;;;;;;5053134;28;20116;-48
2023/07/16 00:29:23;;;;;;;2.92;1.63;;;19.00;99.90;;;;;;5017536;28;20123;-49
2023/07/16 00:31:49;;;;;;;3.08;1.55;;;19.00;99.90;;;;;;5052144;28;20035;-47
2023/07/16 00:34:15;;;;;;;3.95;1.70;;;19.10;99.90;;;;;;5034635;28;20029;-49
2023/07/16 00:36:40;;;;;;;2.95;1.33;;;19.00;99.90;;;;;;5035228;28;20116;-47
2023/07/16 00:39:06;;;;;;;3.80;1.38;;;18.90;99.90;;;;;;5053046;28;20024;-52
2023/07/16 00:41:32;;;;;;;2.90;1.83;;;18.90;99.90;;;;;;5052827;28;20396;-49
2023/07/16 00:43:57;;;;;;;4.93;1.52;;;18.80;99.90;;;;;;5052819;28;20040;-48
2023/07/16 00:46:24;;;;;;;2.63;1.35;;;18.80;99.90;;;;;;5035183;28;20036;-50
2023/07/16 00:48:50;;;;;;;2.90;1.52;;;18.70;99.90;;;;;;5035721;28;20438;-49
2023/07/16 00:51:17;;;;;;;2.72;1.30;;;18.70;99.90;;;;;;5053594;28;20047;-48
2023/07/16 00:53:44;;;;;;;2.78;1.50;;;18.60;99.90;;;;;;5053642;28;20025;-49
2023/07/16 00:56:11;;;;;;;3.13;1.60;;;18.60;99.90;;;;;;5053748;28;20051;-48
2023/07/16 00:58:36;;;;;;;1.50;1.27;;;18.50;99.90;;;;;;5035409;28;20466;-48
2023/07/16 01:01:02;;;;;;;3.08;1.33;;;18.50;99.90;;;;;;5035247;28;20086;-48
2023/07/16 01:03:28;;;;;;;3.80;1.73;;;18.40;99.90;;;;;;5035139;28;20021;-48
2023/07/16 01:06:11;;;;;;;2.97;1.55;;;18.40;99.90;;;;;;5018410;28;20381;-52
2023/07/16 01:09:12;;;;;;;3.85;2.10;;;18.30;99.90;;;;;;5053210;28;20460;-48
2023/07/16 01:11:40;;;;;;;4.30;1.85;;;18.30;99.90;;;;;;5027639;28;20037;-50
2023/07/16 01:14:07;;;;;;;5.22;2.15;;;18.30;99.90;;;;;;5034691;28;20486;-49
2023/07/16 01:16:33;;;;;;;4.38;1.90;;;18.30;99.90;;;;;;5052743;28;20482;-52
2023/07/16 01:18:59;;;;;;;4.70;1.73;;;18.20;99.90;;;;;;5034848;28;20029;-51
2023/07/16 01:21:30;;;;;;;5.05;2.10;;;18.20;99.90;;;;;;5053077;28;20067;-50
2023/07/16 01:24:06;;;;;;;2.90;1.67;;;18.20;99.90;;;;;;5034729;28;20091;-53
2023/07/16 01:27:20;;;;;;;4.90;1.80;;;18.10;99.90;;;;;;5034923;28;20039;-49
2023/07/16 01:29:51;;;;;;;4.07;1.85;;;18.20;99.90;;;;;;5021937;28;20102;-53
2023/07/16 01:32:18;;;;;;;1.80;1.02;;;18.20;99.90;;;;;;5053985;28;20029;-50
2023/07/16 01:34:44;;;;;;;2.60;1.30;;;18.20;99.90;;;;;;5038277;28;20128;-54
2023/07/16 01:37:10;;;;;;;3.50;1.50;;;18.20;99.90;;;;;;5056421;28;20028;-50
2023/07/16 01:39:36;;;;;;;2.80;1.45;;;18.10;99.90;;;;;;5038221;28;20035;-50
2023/07/16 01:42:02;;;;;;;2.33;1.20;;;18.00;99.90;;;;;;5038072;28;20033;-49
2023/07/16 01:44:28;;;;;;;3.80;1.48;;;18.00;99.90;;;;;;5037936;28;20041;-52
2023/07/16 01:47:06;;;;;;;2.97;1.15;;;17.90;99.90;;;;;;5037829;28;20086;-49
2023/07/16 01:49:32;;;;;;;3.40;1.48;;;18.00;99.90;;;;;;5038534;28;20085;-52
2023/07/16 01:52:04;;;;;;;4.93;1.40;;;17.90;99.90;;;;;;5038152;28;20037;-51
2023/07/16 01:54:29;;;;;;;2.78;1.20;;;17.90;99.90;;;;;;5037750;28;20040;-51
2023/07/16 01:56:56;;;;;;;3.22;1.40;;;17.90;99.90;;;;;;5056130;28;20040;-49
2023/07/16 01:59:22;;;;;;;4.57;1.30;;;17.80;99.90;;;;;;5037785;28;20033;-49
2023/07/16 02:01:48;;;;;;;5.03;1.33;;;17.80;99.90;;;;;;5037790;28;20118;-52
2023/07/16 02:04:14;;;;;;;5.63;1.30;;;17.80;99.90;;;;;;5038037;28;20037;-49
2023/07/16 02:06:39;;;;;;;4.03;1.50;;;17.80;99.90;;;;;;5055724;28;20028;-51
2023/07/16 02:09:05;;;;;;;3.25;1.30;;;17.80;99.90;;;;;;5037895;28;20439;-51
2023/07/16 02:11:30;;;;;;;5.43;1.80;;;17.70;99.90;;;;;;5055862;28;20539;-52
2023/07/16 02:13:56;;;;;;;4.68;1.65;;;17.70;99.90;;;;;;5037976;28;20025;-52
2023/07/16 02:16:22;;;;;;;3.85;1.73;;;17.80;99.90;;;;;;5037564;28;20025;-49
2023/07/16 02:18:47;;;;;;;3.83;1.58;;;17.90;99.90;;;;;;5037441;28;20028;-51
2023/07/16 02:21:13;;;;;;;4.95;1.90;;;17.90;99.90;;;;;;5037614;28;20013;-51
2023/07/16 02:23:38;;;;;;;2.30;1.40;;;17.90;99.90;;;;;;5055546;28;20401;-49
2023/07/16 02:26:05;;;;;;;3.28;1.80;;;17.90;99.90;;;;;;5036838;28;20032;-49
2023/07/16 02:28:31;;;;;;;4.07;1.70;;;17.80;99.90;;;;;;5037172;28;20147;-54
2023/07/16 02:30:57;;;;;;;5.45;1.73;;;17.80;99.90;;;;;;5055589;28;20106;-50
2023/07/16 02:33:23;;;;;;;3.20;1.42;;;17.80;99.90;;;;;;5054743;28;20029;-50
2023/07/16 02:35:51;;;;;;;5.38;1.73;;;17.80;99.90;;;;;;5037200;28;20138;-49
2023/07/16 02:38:17;;;;;;;5.55;2.03;;;17.80;99.90;;;;;;5055582;28;20025;-54
2023/07/16 02:40:44;;;;;;;2.53;1.42;;;17.70;99.90;;;;;;5037248;28;20112;-52
2023/07/16 02:43:10;;;;;;;3.75;1.92;;;17.70;99.90;;;;;;5036347;28;20017;-51
2023/07/16 02:45:37;;;;;;;3.33;1.60;;;17.70;99.90;;;;;;5036515;28;20029;-50
2023/07/16 02:48:05;;;;;;;2.65;1.60;;;17.70;99.90;;;;;;5037480;28;20025;-51
2023/07/16 02:50:35;;;;;;;4.38;1.75;;;17.70;99.90;;;;;;5020511;28;20044;-52
2023/07/16 02:53:01;;;;;;;3.72;1.40;;;17.70;99.90;;;;;;5020164;28;20060;-51
2023/07/16 02:55:26;;;;;;;7.10;2.10;;;17.60;99.90;;;;;;5036626;28;20068;-54
2023/07/16 02:57:52;;;;;;;3.22;1.65;;;17.70;99.90;;;;;;5036668;28;20052;-53
2023/07/16 03:00:18;;;;;;;2.90;1.50;;;17.60;99.90;;;;;;5054612;28;20116;-54
2023/07/16 03:02:43;;;;;;;4.43;1.50;;;17.70;99.90;;;;;;5036212;28;20048;-52
2023/07/16 03:05:09;;;;;;;3.80;1.60;;;17.70;99.90;;;;;;5036175;28;20048;-52
2023/07/16 03:07:34;;;;;;;2.95;1.50;;;17.70;99.90;;;;;;5035967;28;20037;-54
2023/07/16 03:10:00;;;;;;;3.67;1.55;;;17.60;99.90;;;;;;5036445;28;20043;-52
2023/07/16 03:12:26;;;;;;;5.78;1.40;;;17.60;99.90;;;;;;5036188;28;20036;-54
2023/07/16 03:14:54;;;;;;;2.67;1.30;;;17.60;99.90;;;;;;5036117;28;20086;-51
2023/07/16 03:17:21;;;;;;;3.05;1.30;;;17.60;99.90;;;;;;5054881;28;20025;-52
2023/07/16 03:19:47;;;;;;;6.05;1.52;;;17.60;99.90;;;;;;5036770;28;20029;-53
2023/07/16 03:22:13;;;;;;;2.50;1.27;;;17.60;99.90;;;;;;5054087;28;20025;-53
2023/07/16 03:24:38;;;;;;;3.40;1.10;;;17.60;99.90;;;;;;5054265;28;20104;-52
2023/07/16 03:27:05;;;;;;;4.57;1.30;;;17.60;99.90;;;;;;5036500;28;20063;-53
2023/07/16 03:29:33;;;;;;;4.63;1.25;;;17.60;99.90;;;;;;5036397;28;20052;-53
2023/07/16 03:31:58;;;;;;;3.88;1.20;;;17.60;99.90;;;;;;5036403;28;20033;-51
2023/07/16 03:34:24;;;;;;;3.72;1.20;;;17.60;99.90;;;;;;5053826;28;20036;-51
2023/07/16 03:36:49;;;;;;;2.20;0.98;;;17.60;99.90;;;;;;5036641;28;20024;-54
2023/07/16 03:39:16;;;;;;;3.75;1.30;;;17.60;99.90;;;;;;5054579;28;20071;-49
2023/07/16 03:41:41;;;;;;;1.80;1.23;;;17.60;99.90;;;;;;5053985;28;20547;-54
2023/07/16 03:44:08;;;;;;;3.45;1.08;;;17.50;99.90;;;;;;5036527;28;20485;-51
2023/07/16 03:46:35;;;;;;;6.13;1.30;;;17.50;99.90;;;;;;5036499;28;20116;-49
2023/07/16 03:49:01;;;;;;;4.72;1.23;;;17.50;99.90;;;;;;5036366;28;20064;-52
2023/07/16 03:51:27;;;;;;;5.13;1.30;;;17.50;99.90;;;;;;5036597;28;20037;-52
2023/07/16 03:53:53;;;;;;;4.60;1.20;;;17.50;99.90;;;;;;5035840;28;20086;-51
2023/07/16 03:56:20;;;;;;;3.60;1.45;;;17.50;99.90;;;;;;5035662;28;20032;-50
2023/07/16 03:58:45;;;;;;;3.45;1.08;;;17.50;99.90;;;;;;5036448;28;20440;-50
2023/07/16 04:01:11;;;;;;;3.20;1.35;;;17.50;99.90;;;;;;5036208;28;20045;-50
2023/07/16 04:03:37;;;;;;;6.40;1.30;;;17.50;99.90;;;;;;5053924;28;20025;-50
2023/07/16 04:06:09;;;;;;;4.38;1.38;;;17.50;99.90;;;;;;5035643;28;20024;-50
2023/07/16 04:08:36;;;;;;;3.58;1.23;;;17.50;99.90;;;;;;5053919;28;20029;-53
2023/07/16 04:11:05;;;;;;;2.15;1.23;;;17.40;99.90;;;;;;5053988;28;20029;-50
2023/07/16 04:13:31;;;;;;;4.95;2.10;;;17.50;99.90;;;;;;5053978;28;20025;-48
2023/07/16 04:15:57;;;;;;;4.78;1.40;;;17.50;99.90;;;;;;5053670;28;20413;-51
2023/07/16 04:18:26;;;;;;;2.28;0.98;;;17.50;99.90;;;;;;5053800;28;20281;-48
2023/07/16 04:20:53;;;;;;;3.95;1.27;;;17.50;99.90;;;;;;5053972;28;20029;-49
2023/07/16 04:23:18;;;;;;;4.18;1.15;;;17.50;99.90;;;;;;5053741;28;20025;-49
2023/07/16 04:25:44;;;;;;;2.13;1.10;;;17.50;99.90;;;;;;5053415;28;20123;-49
2023/07/16 04:28:11;;;;;;;11.43;1.70;;;17.60;99.90;;;;;;5053696;28;20116;-48
2023/07/16 04:30:39;;;;;;;6.57;1.88;;;17.50;99.90;;;;;;5054000;28;20025;-51
2023/07/16 04:33:05;;;;;;;3.05;1.13;;;17.50;99.90;;;;;;5053256;28;20448;-49
2023/07/16 04:35:31;;;;;;;5.15;1.55;;;17.50;99.90;;;;;;5052370;28;20067;-50
2023/07/16 04:37:57;;;;;;;4.40;1.25;;;17.50;99.90;;;;;;5051471;28;20036;-51
2023/07/16 04:40:23;;;;;;;4.10;1.45;;;17.50;99.90;;;;;;5051920;28;20029;-52
2023/07/16 04:42:48;;;;;;;3.53;1.30;;;17.60;99.90;;;;;;5051311;28;20029;-52
2023/07/16 04:45:14;;;;;;;6.30;1.50;;;17.50;99.90;;;;;;5051325;28;20040;-50
2023/07/16 04:47:40;;;;;;;4.55;1.48;;;17.50;99.90;;;;;;5051371;28;20486;-52
2023/07/16 04:50:06;;;;;;;4.70;1.50;;;17.60;99.90;;;;;;5033673;28;20037;-53
2023/07/16 04:52:32;;;;;;;5.18;1.65;;;17.70;99.90;;;;;;5051835;28;20037;-52
2023/07/16 04:54:57;;;;;;;2.55;1.17;;;17.60;99.90;;;;;;5053218;28;20285;-52
2023/07/16 04:57:23;;;;;;;6.88;1.50;;;17.70;99.90;;;;;;5035095;28;20029;-53
2023/07/16 04:59:48;;;;;;;7.05;2.05;;;17.70;99.90;;;;;;5052772;28;20061;-53
2023/07/16 05:02:16;;;;;;;7.93;2.72;;;17.70;99.90;;;;;;5052346;28;20032;-49
2023/07/16 05:04:44;;;;;;;5.47;1.65;;;17.70;99.90;;;;;;5053142;28;20037;-54
2023/07/16 05:07:09;;;;;;;4.43;1.45;;;17.80;99.90;;;;;;5054399;28;20061;-53
2023/07/16 05:09:35;;;;;;;2.97;1.33;;;17.80;99.90;;;;;;5056749;28;20072;-54
2023/07/16 05:12:01;;;;;;;2.72;1.48;;;17.80;99.90;;;;;;5056469;28;20040;-52
2023/07/16 05:14:27;;;;;;;6.13;1.60;;;17.80;99.90;;;;;;5056883;28;20268;-54
2023/07/16 05:16:53;;;;;;;5.50;1.48;;;17.80;99.90;;;;;;5056526;28;20094;-53
2023/07/16 05:19:19;;;;;;;3.55;1.45;;;17.90;99.90;;;;;;5038326;28;20112;-48
2023/07/16 05:21:44;;;;;;;4.93;1.63;;;17.90;99.90;;;;;;5055981;28;20025;-53
2023/07/16 05:24:10;;;;;;;3.30;1.38;;;17.90;99.90;;;;;;5056086;28;20025;-49
2023/07/16 05:26:36;;;;;;;3.30;1.17;;;17.90;99.90;;;;;;5056239;28;20036;-51
2023/07/16 05:29:02;;;;;;;3.20;1.30;;;17.90;99.90;;;;;;5056876;28;20263;-52
2023/07/16 05:31:27;;;;;;;3.60;1.85;;;17.90;99.90;;;;;;5056418;28;20045;-51
2023/07/16 05:33:53;;;;;;;6.63;2.80;;;18.00;99.90;;;;;;5056254;28;20056;-54
2023/07/16 05:36:18;;;;;;;8.05;3.55;;;18.00;99.90;;;;;;5056494;28;20108;-53
2023/07/16 05:38:44;;;;;;;7.35;2.90;;;18.10;99.90;;;;;;5056378;28;20053;-54
2023/07/16 05:41:10;;;;;;;4.35;2.17;;;18.20;99.90;;;;;;5056367;28;20473;-51
2023/07/16 05:43:35;;;;;;;7.63;1.70;;;18.20;99.90;;;;;;5056181;28;20029;-51
2023/07/16 05:46:01;;;;;;;4.65;1.40;;;18.30;99.90;;;;;;5055383;28;20040;-53
2023/07/16 05:48:26;;;;;;;8.52;1.58;;;18.30;99.90;;;;;;5055842;28;20174;-51
2023/07/16 05:50:52;;;;;;;8.60;1.73;;;18.40;99.90;;;;;;5055997;28;20460;-54
2023/07/16 05:53:18;;;;;;;5.10;1.80;;;18.40;99.90;;;;;;5055566;28;20041;-53
2023/07/16 05:55:43;;;;;;;3.95;1.60;;;18.50;99.90;;;;;;5055726;28;20459;-53
2023/07/16 05:58:09;;;;;;;6.15;1.83;;;18.40;99.90;;;;;;5038249;28;20504;-52
2023/07/16 06:00:35;;;;;;;4.95;1.92;;;18.40;99.90;;;;;;5037816;28;20504;-52
2023/07/16 06:03:04;;;;;;;4.40;1.80;;;18.50;99.90;;;;;;5055210;28;20032;-53
2023/07/16 06:05:33;;;;;;;5.18;1.88;;;18.60;99.90;;;;;;5055415;28;20036;-53
2023/07/16 06:07:59;;;;;;;8.52;2.22;;;18.60;99.90;;;;;;5055651;28;20119;-52
2023/07/16 06:10:25;;;;;;;6.65;1.95;;;18.60;99.90;;;;;;5038065;28;20040;-53
2023/07/16 06:12:51;;;;;;;5.05;2.00;;;18.70;99.90;;;;;;5055518;28;20029;-53
2023/07/16 06:15:16;;;;;;;7.10;2.80;;;18.70;99.90;;;;;;5037263;28;20032;-54
2023/07/16 06:17:42;;;;;;;5.25;2.00;;;18.80;99.90;;;;;;5055472;28;20028;-53
2023/07/16 06:20:08;;;;;;;4.45;1.80;;;18.80;99.90;;;;;;5055706;28;20341;-53
2023/07/16 06:22:34;;;;;;;7.03;2.38;;;18.90;99.90;;;;;;5055318;28;20385;-52
2023/07/16 06:24:59;;;;;;;5.75;2.42;;;18.90;99.90;;;;;;5055398;28;20037;-53
2023/07/16 06:27:25;;;;;;;4.20;2.00;;;19.00;99.90;;;;;;5055397;28;20029;-53
2023/07/16 06:29:51;;;;;;;4.30;1.98;;;19.00;99.90;;;;;;5037543;28;20043;-53
2023/07/16 06:32:17;;;;;;;9.52;2.22;;;19.10;99.90;;;;;;5055790;28;20021;-49
2023/07/16 06:34:43;;;;;;;13.65;3.30;;;19.10;99.90;;;;;;5055308;28;20103;-54
2023/07/16 06:37:08;;;;;;;5.57;2.33;;;19.10;99.90;;;;;;5055317;28;20025;-52
2023/07/16 06:39:34;;;;;;;7.95;2.58;;;19.10;99.90;;;;;;5055591;28;20029;-51
2023/07/16 06:42:00;;;;;;;6.65;2.30;;;19.20;99.90;;;;;;5055456;28;20079;-52
2023/07/16 06:44:26;;;;;;;5.45;2.22;;;19.20;99.90;;;;;;5037105;28;20087;-54
2023/07/16 06:46:52;;;;;;;4.57;2.45;;;19.30;99.90;;;;;;5054794;28;20322;-53
2023/07/16 06:49:18;;;;;;;7.55;2.42;;;19.40;99.90;;;;;;5055448;28;20044;-53
2023/07/16 06:51:44;;;;;;;5.95;2.22;;;19.30;99.90;;;;;;5054442;28;20033;-53
2023/07/16 06:54:10;;;;;;;7.25;2.60;;;19.30;99.90;;;;;;5054910;28;20346;-53
2023/07/16 06:56:36;;;;;;;4.13;2.22;;;19.30;99.90;;;;;;5055068;28;20049;-51
2023/07/16 06:59:01;;;;;;;4.60;2.08;;;19.30;99.90;;;;;;5054567;28;20059;-51
2023/07/16 07:01:27;;;;;;;7.32;2.40;;;19.30;99.90;;;;;;5054740;28;20055;-53
2023/07/16 07:03:54;;;;;;;5.68;2.28;;;19.40;99.90;;;;;;5054542;28;20032;-50
2023/07/16 07:06:21;;;;;;;7.13;2.83;;;19.30;99.90;;;;;;5054203;28;20045;-48
2023/07/16 07:08:46;;;;;;;7.72;2.80;;;19.40;99.90;;;;;;5036356;28;20032;-53
2023/07/16 07:11:12;;;;;;;6.00;2.38;;;19.40;99.90;;;;;;5054563;28;20131;-51
2023/07/16 07:13:38;;;;;;;5.55;2.38;;;19.30;99.90;;;;;;5053846;28;20118;-51
2023/07/16 07:16:04;;;;;;;8.05;3.15;;;19.50;99.90;;;;;;5036121;28;20039;-53
2023/07/16 07:18:29;;;;;;;6.35;2.72;;;19.60;99.90;;;;;;5053816;28;20108;-52
2023/07/16 07:20:55;;;;;;;6.03;2.63;;;19.70;99.90;;;;;;5054202;28;20060;-49
2023/07/16 07:23:21;;;;;;;5.72;2.50;;;19.80;99.90;;;;;;5053866;28;20029;-49
2023/07/16 07:25:51;;;;;;;6.93;2.70;;;19.80;99.90;;;;;;5053689;28;20037;-53
2023/07/16 07:28:16;;;;;;;14.88;6.55;;;19.80;99.90;;;;;;5054088;28;20044;-51
2023/07/16 07:30:42;;;;;;;18.23;8.90;;;19.90;99.90;;;;;;5053554;28;20029;-54
2023/07/16 07:33:08;;;;;;;12.05;4.68;;;20.10;99.90;;;;;;5053983;28;20036;-50
2023/07/16 07:35:33;;;;;;;13.65;7.15;;;20.20;99.90;;;;;;5053705;28;20043;-54
2023/07/16 07:37:59;;;;;;;11.20;3.63;;;20.10;99.90;;;;;;5054038;28;20031;-52
2023/07/16 07:40:25;;;;;;;9.40;4.25;;;20.10;99.90;;;;;;5054211;28;20117;-50
2023/07/16 07:42:51;;;;;;;5.47;2.53;;;20.10;99.90;;;;;;5053647;28;20501;-54
2023/07/16 07:45:17;;;;;;;6.93;2.40;;;20.10;99.90;;;;;;5053669;28;20067;-52
2023/07/16 07:47:42;;;;;;;8.73;2.85;;;20.00;99.90;;;;;;5035925;28;20047;-53
2023/07/16 07:50:08;;;;;;;10.73;3.50;;;20.10;99.90;;;;;;5053923;28;20399;-52
2023/07/16 07:52:34;;;;;;;8.07;2.80;;;20.20;99.90;;;;;;5054148;28;20055;-54
2023/07/16 07:54:59;;;;;;;5.82;2.35;;;20.20;99.90;;;;;;5053204;28;20036;-53
2023/07/16 07:57:25;;;;;;;6.72;2.60;;;20.30;99.90;;;;;;5053486;28;20021;-51
2023/07/16 07:59:56;;;;;;;7.88;2.72;;;20.40;99.90;;;;;;5053569;28;20025;-53
2023/07/16 08:02:23;;;;;;;4.47;2.40;;;20.50;99.90;;;;;;5053105;28;20104;-51
2023/07/16 08:04:51;;;;;;;6.82;2.90;;;20.70;99.90;;;;;;5053102;28;20033;-53
2023/07/16 08:07:17;;;;;;;9.73;3.00;;;20.60;99.90;;;;;;5035693;28;20031;-53
2023/07/16 08:09:43;;;;;;;7.45;2.38;;;20.70;99.90;;;;;;5053429;28;20140;-49
2023/07/16 08:12:08;;;;;;;7.13;2.97;;;20.70;99.90;;;;;;5053132;28;20116;-53
2023/07/16 08:14:34;;;;;;;8.80;2.80;;;20.60;99.70;;;;;;5053287;28;20029;-49
2023/07/16 08:17:00;;;;;;;4.75;2.13;;;20.70;99.30;;;;;;5053695;28;20021;-53
2023/07/16 08:19:25;;;;;;;5.53;2.40;;;20.80;99.50;;;;;;5053011;28;20029;-49
2023/07/16 08:21:51;;;;;;;6.55;2.50;;;20.80;99.00;;;;;;5053068;28;20032;-52
2023/07/16 08:24:17;;;;;;;7.22;2.70;;;20.70;99.10;;;;;;5053232;28;20029;-48
2023/07/16 08:26:42;;;;;;;7.82;2.67;;;20.60;99.40;;;;;;5053136;28;20106;-52
2023/07/16 08:29:08;;;;;;;7.47;2.92;;;20.70;99.20;;;;;;5035617;28;20041;-53
2023/07/16 08:31:33;;;;;;;6.57;2.90;;;20.80;99.20;;;;;;5053335;28;20116;-52
2023/07/16 08:33:59;;;;;;;6.63;2.80;;;20.70;99.20;;;;;;5034993;28;20056;-51
2023/07/16 08:36:25;;;;;;;9.43;4.63;;;21.00;99.00;;;;;;5053201;28;20025;-54
2023/07/16 08:38:51;;;;;;;7.57;4.00;;;21.10;98.60;;;;;;5052761;28;20025;-51
2023/07/16 08:41:17;;;;;;;7.07;3.15;;;21.20;98.20;;;;;;5035200;28;20036;-53
2023/07/16 08:43:45;;;;;;;6.10;3.10;;;21.20;98.10;;;;;;5056927;28;20033;-53
2023/07/16 08:46:11;;;;;;;6.20;2.80;;;21.10;98.00;;;;;;5039165;28;20039;-51
2023/07/16 08:48:37;;;;;;;7.30;2.67;;;21.10;97.80;;;;;;5057105;28;20108;-50
2023/07/16 08:51:03;;;;;;;5.68;2.33;;;21.10;98.10;;;;;;5039886;28;20068;-52
2023/07/16 08:53:29;;;;;;;4.85;2.15;;;21.20;98.50;;;;;;5056624;28;20039;-52
2023/07/16 08:55:57;;;;;;;8.05;2.83;;;21.10;98.00;;;;;;5056842;28;20083;-52
2023/07/16 08:58:23;;;;;;;6.65;2.38;;;21.00;98.00;;;;;;5056952;28;20061;-49
2023/07/16 09:00:49;;;;;;;6.45;2.83;;;21.20;98.70;;;;;;5056929;28;20401;-52
2023/07/16 09:03:18;;;;;;;5.60;2.35;;;21.30;98.50;;;;;;5056745;28;20086;-48
2023/07/16 09:05:44;;;;;;;8.65;2.75;;;21.50;97.50;;;;;;5056512;28;20033;-49
2023/07/16 09:08:11;;;;;;;6.35;2.80;;;21.70;97.70;;;;;;5057224;28;20397;-51
2023/07/16 09:10:37;;;;;;;7.10;2.40;;;21.60;97.60;;;;;;5038712;28;20105;-52
2023/07/16 09:13:03;;;;;;;5.47;2.65;;;21.60;97.00;;;;;;5056070;28;20119;-52
2023/07/16 09:15:29;;;;;;;6.93;2.45;;;21.60;96.90;;;;;;5056725;28;20033;-49
2023/07/16 09:17:55;;;;;;;6.47;2.55;;;21.60;96.60;;;;;;5056506;28;20029;-53
2023/07/16 09:20:24;;;;;;;5.57;2.55;;;21.40;96.60;;;;;;5038639;28;20025;-52
2023/07/16 09:22:55;;;;;;;6.88;3.10;;;21.50;97.20;;;;;;5038738;28;20036;-51
2023/07/16 09:25:28;;;;;;;6.90;2.50;;;21.60;96.90;;;;;;5056742;28;20025;-50
2023/07/16 09:27:54;;;;;;;4.22;2.53;;;21.80;95.90;;;;;;5056680;28;20037;-53
2023/07/16 09:30:20;;;;;;;7.60;3.30;;;21.80;96.50;;;;;;5056553;28;20104;-51
2023/07/16 09:32:47;;;;;;;6.22;2.42;;;22.00;96.30;;;;;;5056055;28;20052;-49
2023/07/16 09:35:16;;;;;;;7.15;3.05;;;22.00;95.50;;;;;;5056517;28;20392;-51
2023/07/16 09:37:43;;;;;;;5.15;2.50;;;22.00;95.90;;;;;;5056180;28;20535;-48
2023/07/16 09:40:11;;;;;;;4.20;2.28;;;22.20;96.10;;;;;;5056204;28;20476;-52
2023/07/16 09:42:38;;;;;;;6.03;2.47;;;22.20;95.20;;;;;;5055630;28;20436;-48
2023/07/16 09:45:05;;;;;;;4.53;2.35;;;22.10;95.40;;;;;;5055638;28;20105;-52
2023/07/16 09:47:31;;;;;;;5.43;2.60;;;22.00;95.20;;;;;;5056069;28;20422;-48
2023/07/16 09:49:57;;;;;;;8.35;2.90;;;22.00;95.40;;;;;;5037956;28;20145;-50
2023/07/16 09:52:26;;;;;;;6.13;2.92;;;21.90;95.60;;;;;;5055337;28;20039;-53
2023/07/16 09:54:54;;;;;;;5.75;3.17;;;21.80;95.80;;;;;;5037874;28;20629;-49
2023/07/16 09:57:23;;;;;;;7.47;3.38;;;21.80;95.60;;;;;;5056627;28;20082;-47
2023/07/16 09:59:51;;;;;;;6.32;2.50;;;21.70;96.10;;;;;;5038179;28;20036;-47
2023/07/16 10:02:17;;;;;;;6.85;2.13;;;21.50;95.60;;;;;;5055129;28;20114;-47
2023/07/16 10:04:43;;;;;;;7.32;2.97;;;21.80;95.10;;;;;;5055738;28;20032;-48
2023/07/16 10:07:21;;;;;;;5.63;2.15;;;22.00;94.70;;;;;;5038116;28;20037;-50
2023/07/16 10:09:56;;;;;;;5.43;2.75;;;22.00;94.70;;;;;;5055680;28;20033;-48
2023/07/16 10:12:23;;;;;;;4.93;2.40;;;22.00;94.90;;;;;;5055721;28;20108;-49
2023/07/16 10:14:56;;;;;;;7.13;2.30;;;21.90;94.60;;;;;;5055635;28;20029;-49
2023/07/16 10:17:23;;;;;;;5.95;2.75;;;21.90;94.80;;;;;;5037732;28;20033;-48
2023/07/16 10:19:57;;;;;;;5.30;2.63;;;22.00;95.00;;;;;;5055562;28;20430;-48
2023/07/16 10:22:32;;;;;;;7.15;3.17;;;22.10;94.90;;;;;;5055436;28;20037;-47
2023/07/16 10:24:59;;;;;;;6.50;2.88;;;22.40;95.00;;;;;;5055065;28;20378;-50
2023/07/16 10:27:29;;;;;;;7.75;3.53;;;22.60;94.40;;;;;;5054789;28;20489;-52
2023/07/16 10:29:54;;;;;;;6.03;2.67;;;22.70;94.50;;;;;;5054908;28;20029;-52
2023/07/16 10:32:21;;;;;;;8.10;3.40;;;22.70;94.10;;;;;;5054772;28;20504;-51
2023/07/16 10:34:46;;;;;;;6.53;2.30;;;22.70;94.40;;;;;;5054803;28;20473;-52
2023/07/16 10:37:12;;;;;;;6.45;3.25;;;22.50;94.20;;;;;;5055018;28;20028;-50
2023/07/16 10:39:49;;;;;;;6.30;2.40;;;22.50;94.50;;;;;;5055009;28;20033;-51
2023/07/16 10:42:16;;;;;;;6.60;3.13;;;22.80;95.30;;;;;;5054616;28;20123;-52
2023/07/16 10:44:42;;;;;;;14.27;7.32;;;23.00;93.40;;;;;;5054298;28;20033;-51
2023/07/16 10:47:10;;;;;;;10.25;5.72;;;22.90;93.30;;;;;;5055147;28;20043;-51
2023/07/16 10:49:35;;;;;;;12.02;4.82;;;22.90;93.70;;;;;;5054359;28;20025;-50
2023/07/16 10:52:01;;;;;;;6.85;2.63;;;22.90;93.70;;;;;;5054560;28;20397;-52
2023/07/16 10:54:27;;;;;;;6.25;2.40;;;22.80;93.50;;;;;;5054909;28;20033;-52
2023/07/16 10:56:53;;;;;;;5.85;2.60;;;22.70;93.40;;;;;;5036626;28;20393;-51
2023/07/16 10:59:19;;;;;;;5.78;3.05;;;22.60;93.20;;;;;;5055009;28;20047;-51
2023/07/16 11:01:45;;;;;;;6.18;2.50;;;22.60;93.60;;;;;;5054333;28;20025;-51
2023/07/16 11:04:11;;;;;;;6.88;3.25;;;22.40;92.90;;;;;;5053817;28;20039;-49
2023/07/16 11:06:37;;;;;;;5.90;2.53;;;22.30;93.40;;;;;;5053807;28;20392;-50
2023/07/16 11:09:09;;;;;;;7.70;3.08;;;22.40;93.30;;;;;;5055077;28;20114;-51
2023/07/16 11:11:35;;;;;;;6.60;2.42;;;22.40;93.50;;;;;;5053995;28;20040;-52
2023/07/16 11:14:07;;;;;;;5.32;2.35;;;22.40;93.60;;;;;;5054123;28;20032;-53
2023/07/16 11:16:36;;;;;;;6.38;2.60;;;22.50;93.50;;;;;;5020093;28;20104;-49
2023/07/16 11:19:06;;;;;;;8.13;3.35;;;22.40;92.90;;;;;;5054202;28;20032;-48
2023/07/16 11:21:36;;;;;;;5.05;2.30;;;22.40;92.90;;;;;;5053841;28;20044;-51
2023/07/16 11:24:15;;;;;;;5.93;2.80;;;22.40;92.90;;;;;;5054454;28;20204;-53
2023/07/16 11:26:50;;;;;;;4.80;2.00;;;22.30;93.50;;;;;;5054036;28;20021;-51
2023/07/16 11:29:16;;;;;;;5.82;2.92;;;22.30;93.40;;;;;;5054001;28;20083;-50
2023/07/16 11:31:41;;;;;;;5.10;2.45;;;22.30;93.50;;;;;;5035808;28;20457;-53
2023/07/16 11:34:08;;;;;;;4.35;2.28;;;22.30;93.20;;;;;;5053832;28;20121;-52
2023/07/16 11:36:34;;;;;;;7.38;2.90;;;22.20;92.90;;;;;;5054058;28;20385;-51
2023/07/16 11:39:02;;;;;;;6.28;2.33;;;22.20;93.00;;;;;;5054403;28;20036;-51
2023/07/16 11:41:28;;;;;;;5.53;2.20;;;22.30;93.30;;;;;;5053812;28;20044;-51
2023/07/16 11:43:54;;;;;;;5.40;2.17;;;22.30;93.10;;;;;;5053904;28;20024;-51
2023/07/16 11:46:19;;;;;;;4.13;2.58;;;22.30;92.90;;;;;;5053401;28;20029;-52
2023/07/16 11:48:45;;;;;;;6.35;2.10;;;22.30;93.20;;;;;;5036288;28;20097;-52
2023/07/16 11:51:11;;;;;;;5.78;2.47;;;22.40;93.10;;;;;;5053767;28;20086;-52
2023/07/16 11:53:36;;;;;;;5.10;2.50;;;22.50;93.50;;;;;;5053783;28;20127;-52
2023/07/16 11:56:02;;;;;;;6.05;2.50;;;22.50;93.30;;;;;;5053655;28;20071;-51
2023/07/16 11:58:28;;;;;;;4.53;2.38;;;22.60;93.20;;;;;;5053966;28;20100;-48
2023/07/16 12:00:53;;;;;;;7.55;2.33;;;22.50;92.90;;;;;;5035899;28;20506;-52
2023/07/16 12:03:19;;;;;;;5.93;2.55;;;22.50;92.80;;;;;;5053646;28;20031;-51
2023/07/16 12:05:45;;;;;;;5.57;2.60;;;22.50;92.90;;;;;;5053266;28;20537;-50
2023/07/16 12:08:13;;;;;;;5.03;2.30;;;22.50;93.20;;;;;;5053853;28;20485;-51
2023/07/16 12:10:42;;;;;;;7.75;2.63;;;22.50;93.00;;;;;;5053456;28;20025;-51
2023/07/16 12:13:08;;;;;;;5.07;2.50;;;22.40;93.20;;;;;;5053343;28;20041;-52
2023/07/16 12:15:34;;;;;;;5.10;2.80;;;22.40;93.30;;;;;;5052670;28;20033;-49
2023/07/16 12:17:59;;;;;;;4.88;2.17;;;22.50;93.30;;;;;;5035537;28;20044;-47
2023/07/16 12:20:26;;;;;;;4.22;1.75;;;22.50;92.90;;;;;;5035193;28;20033;-52
2023/07/16 12:22:51;;;;;;;5.22;2.05;;;22.50;92.90;;;;;;5035395;28;20044;-48
2023/07/16 12:25:19;;;;;;;6.00;2.22;;;22.60;92.70;;;;;;5053164;28;20029;-50
2023/07/16 12:27:45;;;;;;;3.95;1.63;;;22.50;92.80;;;;;;5053448;28;20275;-52
2023/07/16 12:30:10;;;;;;;5.70;2.42;;;22.50;92.50;;;;;;5053365;28;20409;-52
2023/07/16 12:32:37;;;;;;;5.97;2.50;;;22.50;92.60;;;;;;5053042;28;20473;-50
2023/07/16 12:35:04;;;;;;;5.32;2.17;;;22.50;93.00;;;;;;5052956;28;20478;-51
2023/07/16 12:37:30;;;;;;;7.43;2.28;;;22.50;93.10;;;;;;5052981;28;20543;-51
2023/07/16 12:39:56;;;;;;;4.40;1.58;;;22.50;93.20;;;;;;5053441;28;20075;-52
2023/07/16 12:42:21;;;;;;;3.90;1.90;;;22.60;92.50;;;;;;5052609;28;20119;-52